createdAt,value
2022-09-03T00:03:50.190Z,0
2022-09-03T00:09:12.569Z,0
2022-09-03T00:14:38.179Z,0
2022-09-03T00:20:01.039Z,0
2022-09-03T00:25:25.231Z,0
2022-09-03T00:30:50.142Z,0
2022-09-03T00:36:12.943Z,0
2022-09-03T00:41:35.739Z,0
2022-09-03T00:46:58.565Z,0
2022-09-03T00:52:23.475Z,0
2022-09-03T00:57:47.977Z,0
2022-09-03T01:03:10.574Z,0
2022-09-03T01:08:33.151Z,0
2022-09-03T01:13:58.582Z,0
2022-09-03T01:19:20.918Z,0
2022-09-03T01:24:43.540Z,0
2022-09-03T01:30:05.769Z,0
2022-09-03T01:35:28.851Z,0
2022-09-03T01:40:52.214Z,0
2022-09-03T01:51:37.394Z,0
2022-09-03T01:56:59.815Z,0
2022-09-03T02:02:22.655Z,0
2022-09-03T02:07:47.765Z,0
2022-09-03T02:13:14.154Z,0
2022-09-03T02:18:36.748Z,0
2022-09-03T02:23:59.061Z,0
2022-09-03T02:29:29.200Z,0
2022-09-03T02:34:51.548Z,0
2022-09-03T02:40:13.870Z,0
2022-09-03T02:45:36.227Z,0
2022-09-03T02:50:58.840Z,0
2022-09-03T02:56:21.462Z,0
2022-09-03T03:01:46.875Z,0
2022-09-03T03:07:09.361Z,0
2022-09-03T03:12:31.943Z,0
2022-09-03T03:17:54.574Z,0
2022-09-03T03:23:17.098Z,0
2022-09-03T03:34:05.058Z,0
2022-09-03T03:39:27.685Z,0
2022-09-03T03:44:51.102Z,0
2022-09-03T03:50:14.146Z,0
2022-09-03T03:55:39.772Z,0
2022-09-03T04:01:02.348Z,0
2022-09-03T04:06:25.118Z,0
2022-09-03T04:11:47.934Z,0
2022-09-03T04:17:10.355Z,0
2022-09-03T04:22:32.734Z,0
2022-09-03T04:27:56.662Z,0
2022-09-03T04:33:19.121Z,0
2022-09-03T04:38:41.659Z,3
2022-09-03T04:44:04.044Z,12
2022-09-03T04:49:26.353Z,15.7
2022-09-03T04:54:48.631Z,19.7
2022-09-03T05:00:11.264Z,22.6
2022-09-03T05:05:41.261Z,30.1
2022-09-03T05:16:29.609Z,46
2022-09-03T05:21:52.329Z,58
2022-09-03T05:27:14.665Z,65.5
2022-09-03T05:32:37.455Z,77.3
2022-09-03T05:43:28.597Z,153.3
2022-09-03T05:48:53.996Z,204.3
2022-09-03T05:54:16.592Z,196.2
2022-09-03T05:59:42.030Z,227.5
2022-09-03T06:05:04.771Z,193.5
2022-09-03T06:10:40.950Z,223.1
2022-09-03T06:16:10.257Z,224.5
2022-09-03T06:21:33.306Z,254.6
2022-09-03T06:26:55.904Z,274
2022-09-03T06:32:18.456Z,307.1
2022-09-03T06:37:41.072Z,318.7
2022-09-03T06:43:10.274Z,330.6
2022-09-03T06:48:32.836Z,319.3
2022-09-03T06:53:55.097Z,322.5
2022-09-03T06:59:18.435Z,364.7
2022-09-03T07:10:07.218Z,430.8
2022-09-03T07:15:30.799Z,377.2
2022-09-03T07:20:54.050Z,355
2022-09-03T07:26:16.548Z,379.1
2022-09-03T07:31:39.432Z,806.2
2022-09-03T07:37:02.559Z,440.8
2022-09-03T07:42:25.662Z,798.3
2022-09-03T07:47:48.486Z,1214.4
2022-09-03T07:53:11.717Z,892
2022-09-03T07:58:34.996Z,605.7
2022-09-03T08:09:25.829Z,1499.5
2022-09-03T08:14:48.529Z,986.2
2022-09-03T08:20:10.037Z,549.6
2022-09-03T08:25:32.510Z,1414.1
2022-09-03T08:30:56.752Z,1556.8
2022-09-03T08:36:20.321Z,1563.3
2022-09-03T08:41:43.262Z,1858.8
2022-09-03T08:47:06.319Z,1844.9
2022-09-03T08:57:51.915Z,1064.2
2022-09-03T09:03:13.028Z,429.2
2022-09-03T09:08:36.940Z,484.7
2022-09-03T09:14:07.158Z,545.3
2022-09-03T09:19:29.852Z,668.8
2022-09-03T09:24:52.686Z,796
2022-09-03T09:30:18.595Z,818.2
2022-09-03T09:35:42.359Z,956.4
2022-09-03T09:41:06.090Z,897.6
2022-09-03T09:46:29.005Z,898.4
2022-09-03T09:51:51.578Z,966
2022-09-03T09:57:14.886Z,1303.2
2022-09-03T10:02:40.744Z,969.8
2022-09-03T10:08:05.838Z,1012.8
2022-09-03T10:13:28.491Z,1008.5
2022-09-03T10:18:53.655Z,1263
2022-09-03T10:24:17.002Z,1316
2022-09-03T10:29:41.698Z,849
2022-09-03T10:35:04.499Z,954.4
2022-09-03T10:45:57.852Z,1376.4
2022-09-03T10:51:24.253Z,1512.8
2022-09-03T10:56:47.020Z,1197.3
2022-09-03T11:02:10.384Z,2414.8
2022-09-03T11:07:32.997Z,2512.5
2022-09-03T11:12:56.568Z,2053.4
2022-09-03T11:18:19.399Z,2488.1
2022-09-03T11:23:43.138Z,2182
2022-09-03T11:29:05.959Z,2026.2
2022-09-03T11:34:32.863Z,2171.3
2022-09-03T11:39:56.880Z,2132.1
2022-09-03T11:45:20.763Z,2112.3
2022-09-03T11:50:43.835Z,2636.5
2022-09-03T11:56:07.548Z,2234
2022-09-03T12:01:30.954Z,2280.3
2022-09-03T12:06:53.444Z,2225
2022-09-03T12:12:16.179Z,1870.6
2022-09-03T12:17:38.752Z,2258.5
2022-09-03T12:23:01.251Z,2155.3
2022-09-03T12:28:25.965Z,2557.9
2022-09-03T12:33:48.312Z,2051.9
2022-09-03T12:39:13.487Z,1936.6
2022-09-03T12:44:36.579Z,2034.8
2022-09-03T12:55:02.493Z,2071.4
2022-09-03T13:00:25.253Z,2013
2022-09-03T13:05:47.546Z,1814.6
2022-09-03T13:11:10.141Z,1903.4
2022-09-03T13:16:33.031Z,1985.4
2022-09-03T13:21:55.970Z,1572.5
2022-09-03T13:27:17.128Z,1753.7
2022-09-03T13:32:40.416Z,1438.4
2022-09-03T13:38:06.704Z,1821.1
2022-09-03T13:43:29.084Z,531.9
2022-09-03T13:48:50.526Z,600.7
2022-09-03T13:54:12.934Z,519.1
2022-09-03T13:59:36.081Z,790.5
2022-09-03T14:05:00.240Z,1633.7
2022-09-03T14:15:52.355Z,1452.3
2022-09-03T14:21:13.244Z,355.9
2022-09-03T14:26:41.140Z,292.2
2022-09-03T14:32:03.390Z,317.8
2022-09-03T14:37:27.989Z,291.9
2022-09-03T14:42:50.226Z,246
2022-09-03T14:48:12.734Z,242.5
2022-09-03T14:53:35.174Z,215.1
2022-09-03T14:58:58.953Z,197.4
2022-09-03T15:04:21.546Z,182.2
2022-09-03T15:09:43.977Z,169.6
2022-09-03T15:15:07.328Z,156
2022-09-03T15:20:29.833Z,159.5
2022-09-03T15:25:51.660Z,153.5
2022-09-03T15:31:13.967Z,156.3
2022-09-03T15:36:36.536Z,172
2022-09-03T15:42:16.928Z,181.9
2022-09-03T15:47:52.436Z,218.9
2022-09-03T15:53:15.239Z,265.8
2022-09-03T15:58:37.789Z,331.4
2022-09-03T16:04:00.986Z,376.3
2022-09-03T16:09:23.826Z,377.6
2022-09-03T16:14:46.343Z,344.5
2022-09-03T16:20:11.637Z,344.9
2022-09-03T16:25:34.121Z,376.7
2022-09-03T16:30:57.213Z,375.4
2022-09-03T16:36:19.804Z,312.9
2022-09-03T16:41:45.809Z,249.3
2022-09-03T16:47:08.322Z,216.5
2022-09-03T16:52:39.465Z,169.7
2022-09-03T16:58:01.985Z,119.6
2022-09-03T17:03:28.045Z,101.6
2022-09-03T17:08:54.168Z,74.6
2022-09-03T17:14:17.328Z,64.5
2022-09-03T17:19:39.645Z,52.5
2022-09-03T17:25:02.218Z,47
2022-09-03T17:30:24.876Z,40.7
2022-09-03T17:41:09.670Z,32.7
2022-09-03T17:46:34.766Z,31.2
2022-09-03T17:51:57.431Z,32.9
2022-09-03T17:57:22.286Z,24.8
2022-09-03T18:02:44.529Z,23.1
2022-09-03T18:08:07.043Z,15.3
2022-09-03T18:13:29.560Z,10.6
2022-09-03T18:18:52.187Z,6
2022-09-03T18:24:35.716Z,1
2022-09-03T18:29:58.361Z,0
2022-09-03T18:35:23.426Z,0
2022-09-03T18:40:45.863Z,0
2022-09-03T18:53:32.609Z,0
2022-09-03T18:58:55.737Z,0
2022-09-03T19:04:27.039Z,0
2022-09-03T19:09:49.864Z,0
2022-09-03T19:15:12.290Z,0
2022-09-03T19:20:34.731Z,0
2022-09-03T19:25:57.154Z,0
2022-09-03T19:31:19.777Z,0
2022-09-03T19:36:42.050Z,0
2022-09-03T19:42:04.384Z,0
2022-09-03T19:47:29.991Z,0
2022-09-03T19:52:52.648Z,0
2022-09-03T19:58:44.016Z,0
2022-09-03T20:04:12.194Z,0
2022-09-03T20:09:34.743Z,0
2022-09-03T20:14:57.123Z,0
2022-09-03T20:20:25.508Z,0
2022-09-03T20:31:13.957Z,0
2022-09-03T20:36:36.602Z,0
2022-09-03T20:41:59.335Z,0
2022-09-03T20:47:26.728Z,0
2022-09-03T20:52:53.594Z,0
2022-09-03T20:58:16.162Z,0
2022-09-03T21:03:41.510Z,0
2022-09-03T21:09:04.263Z,0
2022-09-03T21:14:26.591Z,0
2022-09-03T21:19:51.978Z,0
2022-09-03T21:25:35.370Z,0
2022-09-03T21:30:58.758Z,0
2022-09-03T21:36:24.316Z,0
2022-09-03T21:41:46.544Z,0
2022-09-03T21:47:09.128Z,0
2022-09-03T21:52:32.327Z,0
2022-09-03T22:03:17.976Z,0
2022-09-03T22:08:40.292Z,0
2022-09-03T22:14:05.411Z,0
2022-09-03T22:19:27.737Z,0
2022-09-03T22:24:50.300Z,0
2022-09-03T22:30:20.429Z,0
2022-09-03T22:35:43.197Z,0
2022-09-03T22:41:09.507Z,0
2022-09-03T22:46:32.690Z,0
2022-09-03T22:51:55.094Z,0
2022-09-03T22:57:17.659Z,0
2022-09-03T23:02:39.871Z,0
2022-09-03T23:08:02.554Z,0
2022-09-03T23:13:25.684Z,0
2022-09-03T23:18:51.173Z,0
2022-09-03T23:24:14.914Z,0
2022-09-03T23:29:40.277Z,0
2022-09-03T23:35:02.769Z,0
2022-09-03T23:45:48.532Z,0
2022-09-03T23:51:11.391Z,0
2022-09-03T23:56:33.920Z,0
